Time;durP1;ratioP1;P1;durP2;ratioP2;P2;SDS_P1;SDS_P2;PMS_P1;PMS_P2;Temp;Humidity;BMP_temperature;BMP_pressure;BME280_temperature;BME280_humidity;BME280_pressure;Samples;Min_cycle;Max_cycle;Signal;HPM_P1;HPM_P2
2022/03/27 00:00:17;;;;;;;23.33;11.90;;;13.30;42.00;;;;;;5116384;27;20459;-82
2022/03/27 00:02:46;;;;;;;19.23;11.70;;;13.30;41.90;;;;;;5135494;27;20468;-82
2022/03/27 00:05:13;;;;;;;24.60;11.60;;;13.20;41.30;;;;;;5136518;27;20719;-82
2022/03/27 00:07:41;;;;;;;19.83;11.47;;;13.20;41.40;;;;;;5136791;27;20464;-82
2022/03/27 00:10:09;;;;;;;26.23;11.97;;;13.20;41.50;;;;;;5136172;27;20446;-82
2022/03/27 00:12:36;;;;;;;17.07;11.23;;;13.10;41.60;;;;;;5120369;27;20438;-82
2022/03/27 00:15:03;;;;;;;22.87;11.80;;;13.10;41.80;;;;;;5116161;27;20471;-84
2022/03/27 00:17:32;;;;;;;27.27;12.73;;;13.10;42.30;;;;;;5135786;27;20450;-83
2022/03/27 00:20:02;;;;;;;19.87;10.63;;;13.00;42.40;;;;;;5115802;27;20461;-82
2022/03/27 00:22:29;;;;;;;19.37;10.43;;;12.90;42.50;;;;;;5136105;27;20447;-82
2022/03/27 00:24:57;;;;;;;22.00;10.00;;;12.70;42.70;;;;;;5134386;27;20524;-84
2022/03/27 00:27:24;;;;;;;16.60;9.63;;;12.70;42.90;;;;;;5136049;27;20499;-83
2022/03/27 00:29:52;;;;;;;21.40;11.13;;;12.70;42.50;;;;;;5112982;27;20465;-81
2022/03/27 00:32:20;;;;;;;16.10;9.70;;;12.80;42.30;;;;;;5134754;27;20450;-83
2022/03/27 00:34:49;;;;;;;18.17;9.73;;;12.70;42.20;;;;;;5134813;27;20928;-81
2022/03/27 00:37:17;;;;;;;21.33;12.00;;;12.70;42.10;;;;;;5135518;27;20437;-84
2022/03/27 00:39:45;;;;;;;19.63;11.33;;;12.70;42.00;;;;;;5116455;27;20931;-82
2022/03/27 00:42:12;;;;;;;17.60;10.97;;;12.70;41.90;;;;;;5134125;27;20457;-81
2022/03/27 00:44:39;;;;;;;16.87;10.40;;;12.70;41.90;;;;;;5116861;27;20849;-82
2022/03/27 00:47:07;;;;;;;17.30;10.40;;;12.70;41.80;;;;;;5132220;27;20803;-83
2022/03/27 00:50:18;;;;;;;21.90;10.10;;;12.70;41.80;;;;;;5134209;27;20591;-82
2022/03/27 00:53:28;;;;;;;16.77;9.20;;;12.70;41.80;;;;;;5097682;27;20438;-82
2022/03/27 00:55:55;;;;;;;20.57;10.53;;;12.60;42.00;;;;;;5133353;27;20489;-83
2022/03/27 00:58:23;;;;;;;16.57;10.17;;;12.50;42.00;;;;;;5112082;27;20865;-81
2022/03/27 01:00:56;;;;;;;15.37;10.10;;;12.50;41.90;;;;;;5131466;27;20458;-83
2022/03/27 01:03:25;;;;;;;17.57;10.60;;;12.40;41.80;;;;;;5134632;27;20468;-82
2022/03/27 01:05:54;;;;;;;18.23;10.83;;;12.40;41.90;;;;;;5130168;27;20884;-83
2022/03/27 01:11:14;;;;;;;20.77;10.70;;;12.40;42.10;;;;;;5129079;27;20710;-83
2022/03/27 01:13:44;;;;;;;24.23;11.03;;;12.40;42.10;;;;;;5127742;27;20971;-82
2022/03/27 01:16:16;;;;;;;26.90;9.77;;;12.30;42.10;;;;;;5111971;27;21093;-83
2022/03/27 01:18:44;;;;;;;20.20;10.50;;;12.30;42.20;;;;;;5112343;27;20468;-82
2022/03/27 01:21:14;;;;;;;24.07;9.83;;;12.30;42.20;;;;;;5128204;27;20967;-82
2022/03/27 01:23:41;;;;;;;16.43;9.87;;;12.20;42.10;;;;;;5130753;27;20972;-82
2022/03/27 01:26:08;;;;;;;27.47;11.53;;;12.20;42.20;;;;;;5111054;27;20755;-82
2022/03/27 01:28:35;;;;;;;17.50;10.37;;;12.10;42.20;;;;;;5131134;27;20840;-83
2022/03/27 01:31:07;;;;;;;18.23;10.10;;;12.10;42.50;;;;;;5108327;27;20623;-82
2022/03/27 01:33:35;;;;;;;15.50;11.07;;;12.10;42.70;;;;;;5131991;27;20771;-82
2022/03/27 01:36:02;;;;;;;13.23;10.13;;;12.10;42.90;;;;;;5128590;27;20469;-80
2022/03/27 01:38:30;;;;;;;22.50;10.87;;;12.00;43.00;;;;;;5128632;27;20474;-82
2022/03/27 01:40:57;;;;;;;13.93;8.87;;;12.00;43.20;;;;;;5110397;27;20995;-82
2022/03/27 01:43:24;;;;;;;17.13;10.50;;;11.90;43.30;;;;;;5112771;27;20445;-82
2022/03/27 01:45:51;;;;;;;15.40;10.03;;;11.90;43.50;;;;;;5131652;27;20626;-81
2022/03/27 01:48:18;;;;;;;18.50;11.30;;;11.90;43.50;;;;;;5131102;27;20468;-83
2022/03/27 01:50:58;;;;;;;17.10;11.00;;;11.90;43.60;;;;;;5131036;27;20854;-81
2022/03/27 01:53:25;;;;;;;20.77;10.60;;;11.80;43.50;;;;;;5131333;27;20445;-82
2022/03/27 01:55:53;;;;;;;18.40;10.50;;;11.80;43.40;;;;;;5131281;27;20509;-82
2022/03/27 01:58:20;;;;;;;16.97;8.93;;;11.80;43.40;;;;;;5128725;27;20565;-81
2022/03/27 02:00:48;;;;;;;17.57;9.50;;;11.70;43.20;;;;;;5133299;27;20451;-81
2022/03/27 02:03:15;;;;;;;15.67;9.10;;;11.70;43.10;;;;;;5133595;27;20449;-81
2022/03/27 02:05:41;;;;;;;16.53;9.73;;;11.70;43.30;;;;;;5132173;27;20892;-82
2022/03/27 02:08:10;;;;;;;13.83;8.90;;;11.60;43.10;;;;;;5129382;27;20554;-82
2022/03/27 02:10:36;;;;;;;13.37;9.00;;;11.60;43.30;;;;;;5130985;27;20440;-82
2022/03/27 02:13:05;;;;;;;15.80;8.77;;;11.60;43.20;;;;;;5112729;27;21003;-81
2022/03/27 02:15:32;;;;;;;17.97;9.60;;;11.60;43.10;;;;;;5131196;27;21009;-82
2022/03/27 02:18:01;;;;;;;18.30;9.53;;;11.50;43.40;;;;;;5129503;27;20585;-82
2022/03/27 02:20:28;;;;;;;19.47;9.90;;;11.40;43.70;;;;;;5112015;27;21384;-79
2022/03/27 02:22:55;;;;;;;14.07;8.97;;;11.40;43.60;;;;;;5112664;27;20960;-82
2022/03/27 02:25:23;;;;;;;14.10;9.97;;;11.40;43.30;;;;;;5112684;27;20452;-82
2022/03/27 02:27:49;;;;;;;14.70;9.20;;;11.40;43.40;;;;;;5132537;27;20529;-82
2022/03/27 02:30:19;;;;;;;13.70;8.70;;;11.40;43.30;;;;;;5137052;27;20441;-82
2022/03/27 02:32:47;;;;;;;20.60;10.10;;;11.30;43.60;;;;;;5133811;27;20455;-80
2022/03/27 02:35:14;;;;;;;17.53;10.10;;;11.30;43.60;;;;;;5129136;27;20456;-82
2022/03/27 02:37:41;;;;;;;23.10;10.80;;;11.30;43.60;;;;;;5130822;27;20982;-82
2022/03/27 02:40:10;;;;;;;14.07;9.83;;;11.30;43.60;;;;;;5130634;27;20956;-82
2022/03/27 02:42:37;;;;;;;23.40;10.57;;;11.20;43.60;;;;;;5129536;27;20526;-82
2022/03/27 02:45:05;;;;;;;14.93;8.97;;;11.20;43.70;;;;;;5117265;27;20449;-82
2022/03/27 02:47:34;;;;;;;19.30;10.77;;;11.20;43.80;;;;;;5129926;27;20821;-82
2022/03/27 02:50:01;;;;;;;16.67;9.40;;;11.10;43.80;;;;;;5130486;27;20480;-82
2022/03/27 02:52:28;;;;;;;19.57;9.70;;;11.10;43.90;;;;;;5130047;27;20917;-82
2022/03/27 02:54:55;;;;;;;23.20;10.23;;;11.00;43.80;;;;;;5127977;27;20445;-81
2022/03/27 02:57:22;;;;;;;16.90;9.30;;;11.00;43.80;;;;;;5131172;27;20469;-80
2022/03/27 02:59:52;;;;;;;19.63;10.37;;;11.00;43.70;;;;;;5130560;27;20540;-82
2022/03/27 03:02:19;;;;;;;20.77;10.20;;;11.00;44.00;;;;;;5130382;27;20829;-82
2022/03/27 03:04:48;;;;;;;16.90;9.37;;;10.90;43.80;;;;;;5131205;27;20447;-82
2022/03/27 03:07:15;;;;;;;15.20;8.87;;;10.90;44.20;;;;;;5120799;27;21063;-81
2022/03/27 03:09:42;;;;;;;18.40;9.43;;;10.80;44.40;;;;;;5130286;27;20959;-82
2022/03/27 03:12:11;;;;;;;20.77;9.80;;;10.70;44.20;;;;;;5129776;27;20479;-80
2022/03/27 03:14:38;;;;;;;14.80;8.33;;;10.80;44.20;;;;;;5121272;27;20457;-82
2022/03/27 03:17:05;;;;;;;16.80;9.90;;;10.80;44.20;;;;;;5111632;27;20892;-82
2022/03/27 03:19:32;;;;;;;15.20;8.60;;;10.80;44.10;;;;;;5130302;27;20497;-81
2022/03/27 03:22:01;;;;;;;14.17;8.07;;;10.80;44.00;;;;;;5124890;27;20441;-81
2022/03/27 03:24:28;;;;;;;19.23;9.70;;;10.70;44.00;;;;;;5132140;27;20456;-83
2022/03/27 03:26:56;;;;;;;14.53;8.90;;;10.60;44.40;;;;;;5129149;27;20441;-82
2022/03/27 03:29:23;;;;;;;20.53;9.77;;;10.50;44.80;;;;;;5130172;27;20461;-80
2022/03/27 03:31:50;;;;;;;15.67;9.67;;;10.40;45.20;;;;;;5131380;27;20469;-81
2022/03/27 03:34:17;;;;;;;15.53;9.23;;;10.40;45.10;;;;;;5133098;27;20449;-82
2022/03/27 03:36:45;;;;;;;17.20;9.10;;;10.30;45.20;;;;;;5134395;27;20470;-82
2022/03/27 03:39:13;;;;;;;16.10;9.73;;;10.30;45.30;;;;;;5134133;27;20465;-82
2022/03/27 03:41:40;;;;;;;18.53;9.73;;;10.30;45.30;;;;;;5135435;27;20908;-82
2022/03/27 03:44:08;;;;;;;14.87;8.43;;;10.40;45.10;;;;;;5134838;27;21050;-82
2022/03/27 03:46:35;;;;;;;17.00;9.63;;;10.40;44.90;;;;;;5133721;27;20508;-83
2022/03/27 03:49:06;;;;;;;19.00;9.53;;;10.40;45.00;;;;;;5134462;27;21225;-82
2022/03/27 03:51:35;;;;;;;21.03;9.83;;;10.40;45.20;;;;;;5137358;27;21067;-82
2022/03/27 03:54:02;;;;;;;13.70;9.50;;;10.30;45.00;;;;;;5133840;27;21235;-83
2022/03/27 03:56:30;;;;;;;14.63;9.17;;;10.30;45.10;;;;;;5135705;27;20469;-84
2022/03/27 03:58:57;;;;;;;15.23;8.70;;;10.30;45.30;;;;;;5135289;27;20469;-84
2022/03/27 04:01:24;;;;;;;19.30;10.90;;;10.30;45.50;;;;;;5137184;27;20466;-82
2022/03/27 04:03:51;;;;;;;18.60;10.20;;;10.30;45.70;;;;;;5135504;27;20458;-79
2022/03/27 04:06:20;;;;;;;17.00;9.47;;;10.30;45.60;;;;;;5136326;27;20450;-81
2022/03/27 04:08:47;;;;;;;15.17;8.60;;;10.30;45.40;;;;;;5136362;27;21127;-80
2022/03/27 04:11:16;;;;;;;15.40;8.20;;;10.30;45.30;;;;;;5133712;27;20429;-82
2022/03/27 04:13:45;;;;;;;15.23;8.77;;;10.30;45.10;;;;;;5135880;27;20997;-82
2022/03/27 04:16:12;;;;;;;17.53;9.47;;;10.20;44.70;;;;;;5133457;27;20529;-83
2022/03/27 04:18:40;;;;;;;16.57;9.37;;;10.10;45.50;;;;;;5135432;27;20466;-82
2022/03/27 04:21:09;;;;;;;18.77;8.47;;;10.10;45.80;;;;;;5133004;27;20453;-82
2022/03/27 04:23:36;;;;;;;17.57;9.40;;;10.10;45.60;;;;;;5133861;27;21246;-82
2022/03/27 04:26:04;;;;;;;17.83;9.67;;;10.10;45.50;;;;;;5134411;27;20446;-81
2022/03/27 04:28:31;;;;;;;17.83;8.87;;;10.10;45.60;;;;;;5136163;27;20565;-82
2022/03/27 04:31:00;;;;;;;16.33;8.70;;;10.10;45.60;;;;;;5132665;27;20464;-83
2022/03/27 04:33:27;;;;;;;15.27;9.20;;;10.10;45.40;;;;;;5134509;27;20449;-82
2022/03/27 04:35:53;;;;;;;19.23;9.37;;;10.10;45.30;;;;;;5116940;27;20440;-82
2022/03/27 04:38:21;;;;;;;15.87;9.13;;;10.10;45.40;;;;;;5132781;27;21009;-82
2022/03/27 04:40:50;;;;;;;15.10;8.90;;;10.10;45.60;;;;;;5133901;27;20540;-82
2022/03/27 04:43:17;;;;;;;14.40;8.87;;;10.00;45.50;;;;;;5135445;27;20477;-82
2022/03/27 04:45:44;;;;;;;17.80;9.43;;;10.00;45.60;;;;;;5133661;27;20448;-84
2022/03/27 04:48:12;;;;;;;21.00;8.53;;;10.00;45.60;;;;;;5132548;27;21161;-82
2022/03/27 04:50:39;;;;;;;14.80;8.33;;;10.00;45.50;;;;;;5135250;27;20480;-82
2022/03/27 04:53:06;;;;;;;19.07;9.17;;;10.00;45.40;;;;;;5132630;27;21854;-83
2022/03/27 04:55:33;;;;;;;14.87;9.43;;;10.00;45.30;;;;;;5133153;27;20449;-82
2022/03/27 04:58:00;;;;;;;17.53;8.70;;;10.00;45.50;;;;;;5113718;27;20481;-82
2022/03/27 05:00:28;;;;;;;14.83;9.47;;;9.90;46.30;;;;;;5131036;27;20445;-80
2022/03/27 05:02:55;;;;;;;12.43;8.17;;;9.90;46.30;;;;;;5130316;27;20468;-82
2022/03/27 05:05:24;;;;;;;17.00;9.30;;;9.90;46.40;;;;;;5132073;27;20442;-82
2022/03/27 05:07:53;;;;;;;14.87;8.87;;;9.90;46.50;;;;;;5116131;27;20436;-82
2022/03/27 05:10:20;;;;;;;13.20;8.17;;;9.80;46.70;;;;;;5133578;27;20450;-82
2022/03/27 05:12:48;;;;;;;15.53;9.43;;;9.80;46.80;;;;;;5133179;27;20449;-82
2022/03/27 05:15:15;;;;;;;13.40;8.43;;;9.80;46.90;;;;;;5132134;27;20457;-82
2022/03/27 05:17:49;;;;;;;13.80;8.90;;;9.80;47.20;;;;;;5133037;27;20845;-81
2022/03/27 05:20:17;;;;;;;19.17;9.00;;;9.70;47.20;;;;;;5131676;27;20936;-82
2022/03/27 05:22:46;;;;;;;15.47;10.57;;;9.70;47.00;;;;;;5131005;27;20765;-83
2022/03/27 05:25:15;;;;;;;14.23;8.70;;;9.70;47.00;;;;;;5132261;27;20453;-81
2022/03/27 05:27:47;;;;;;;15.83;9.40;;;9.70;47.30;;;;;;5114699;27;20973;-82
2022/03/27 05:30:16;;;;;;;17.73;8.73;;;9.60;48.10;;;;;;5131234;27;21250;-82
2022/03/27 05:32:43;;;;;;;20.97;10.10;;;9.60;47.80;;;;;;5133591;27;20477;-82
2022/03/27 05:35:10;;;;;;;15.90;9.77;;;9.40;48.20;;;;;;5132714;27;20956;-84
2022/03/27 05:37:38;;;;;;;20.70;11.00;;;9.40;48.10;;;;;;5133819;27;20972;-83
2022/03/27 05:40:10;;;;;;;31.37;10.93;;;9.50;48.10;;;;;;5131014;27;20457;-83
2022/03/27 05:42:37;;;;;;;14.40;9.37;;;9.40;48.50;;;;;;5134738;27;20925;-83
2022/03/27 05:45:05;;;;;;;19.03;11.80;;;9.20;49.30;;;;;;5130657;27;21006;-82
2022/03/27 05:47:32;;;;;;;33.27;11.50;;;9.10;49.40;;;;;;5131397;27;20437;-82
2022/03/27 05:50:00;;;;;;;20.50;11.13;;;9.20;49.10;;;;;;5113524;27;21425;-82
2022/03/27 05:52:27;;;;;;;24.83;11.33;;;9.30;49.10;;;;;;5131898;27;20529;-83
2022/03/27 05:54:54;;;;;;;23.43;10.97;;;9.40;48.80;;;;;;5130306;27;20446;-82
2022/03/27 05:57:23;;;;;;;19.80;13.40;;;9.50;48.60;;;;;;5130302;27;20465;-82
2022/03/27 05:59:50;;;;;;;23.53;15.77;;;9.50;49.10;;;;;;5132315;27;20843;-82
2022/03/27 06:02:17;;;;;;;28.00;16.37;;;9.40;49.30;;;;;;5132676;27;20868;-83
2022/03/27 06:04:44;;;;;;;26.53;15.53;;;9.40;49.20;;;;;;5115189;27;20807;-82
2022/03/27 06:07:11;;;;;;;22.20;14.53;;;9.50;49.20;;;;;;5133929;27;20454;-83
2022/03/27 06:09:39;;;;;;;26.27;15.40;;;9.50;49.10;;;;;;5132827;27;20476;-82
2022/03/27 06:12:07;;;;;;;30.63;16.23;;;9.60;49.00;;;;;;5131954;27;21037;-82
2022/03/27 06:14:35;;;;;;;24.37;15.67;;;9.60;49.00;;;;;;5132522;27;20537;-82
2022/03/27 06:17:03;;;;;;;20.30;14.30;;;9.70;48.90;;;;;;5114295;27;20476;-83
2022/03/27 06:19:30;;;;;;;23.37;13.43;;;9.60;49.60;;;;;;5131562;27;20657;-83
2022/03/27 06:21:58;;;;;;;29.50;13.70;;;9.70;49.20;;;;;;5121184;27;20442;-82
2022/03/27 06:24:27;;;;;;;30.10;14.27;;;9.70;49.10;;;;;;5129678;27;20520;-82
2022/03/27 06:26:54;;;;;;;27.60;15.13;;;9.70;49.40;;;;;;5131298;27;21002;-82
2022/03/27 06:29:21;;;;;;;39.67;17.40;;;9.70;49.50;;;;;;5129321;27;20472;-82
2022/03/27 06:31:51;;;;;;;38.30;18.83;;;9.70;49.60;;;;;;5114156;27;20658;-83
2022/03/27 06:34:18;;;;;;;33.60;21.70;;;9.70;50.20;;;;;;5131794;27;20744;-82
2022/03/27 06:36:45;;;;;;;33.53;19.60;;;9.70;49.60;;;;;;5112583;27;20472;-83
2022/03/27 06:39:13;;;;;;;29.00;16.40;;;9.80;49.70;;;;;;5130630;27;20745;-82
2022/03/27 06:41:40;;;;;;;29.17;16.10;;;9.80;49.80;;;;;;5127017;27;20883;-82
2022/03/27 06:44:07;;;;;;;27.97;16.97;;;9.80;49.90;;;;;;5111747;27;20457;-83
2022/03/27 06:46:34;;;;;;;26.00;16.53;;;9.80;49.90;;;;;;5132666;27;20448;-84
2022/03/27 06:49:02;;;;;;;31.77;16.03;;;9.90;49.80;;;;;;5128926;27;20458;-82
2022/03/27 06:51:29;;;;;;;26.43;15.00;;;9.90;49.90;;;;;;5132967;27;20825;-83
2022/03/27 06:53:56;;;;;;;28.50;14.93;;;9.90;49.90;;;;;;5128821;27;20450;-84
2022/03/27 06:56:23;;;;;;;30.40;14.20;;;10.00;49.00;;;;;;5129851;27;20968;-82
2022/03/27 06:58:51;;;;;;;22.60;12.40;;;10.00;49.20;;;;;;5128938;27;20480;-80
2022/03/27 07:04:04;;;;;;;19.00;11.17;;;10.10;49.30;;;;;;5127561;27;20529;-82
2022/03/27 07:06:31;;;;;;;19.80;10.97;;;10.10;49.30;;;;;;5110572;27;20533;-82
2022/03/27 07:08:58;;;;;;;18.50;10.47;;;10.10;49.40;;;;;;5127041;27;20730;-82
2022/03/27 07:11:25;;;;;;;21.63;11.60;;;10.20;49.40;;;;;;5130937;27;21200;-82
2022/03/27 07:13:52;;;;;;;19.07;11.60;;;10.20;49.30;;;;;;5128287;27;20949;-84
2022/03/27 07:16:19;;;;;;;16.90;10.90;;;10.30;49.40;;;;;;5131434;27;20474;-83
2022/03/27 07:18:49;;;;;;;16.37;10.47;;;10.30;49.50;;;;;;5130921;27;20480;-83
2022/03/27 07:21:20;;;;;;;19.30;11.23;;;10.40;49.60;;;;;;5128732;27;20435;-83
2022/03/27 07:23:47;;;;;;;15.83;11.10;;;10.40;49.50;;;;;;5127594;27;20449;-79
2022/03/27 07:26:14;;;;;;;17.03;11.23;;;10.50;49.50;;;;;;5127091;27;20444;-82
2022/03/27 07:28:41;;;;;;;16.50;10.93;;;10.50;49.50;;;;;;5129048;27;20977;-81
2022/03/27 07:31:11;;;;;;;21.23;11.67;;;10.60;49.50;;;;;;5110084;27;20988;-82
2022/03/27 07:33:39;;;;;;;14.80;10.40;;;10.60;49.30;;;;;;5127573;27;20446;-82
2022/03/27 07:36:06;;;;;;;18.77;12.30;;;10.60;49.10;;;;;;5129087;27;20446;-82
2022/03/27 07:38:35;;;;;;;17.90;11.23;;;10.60;49.30;;;;;;5126103;27;20632;-83
2022/03/27 07:41:02;;;;;;;20.50;12.27;;;10.70;49.40;;;;;;5127273;27;20563;-79
2022/03/27 07:43:30;;;;;;;17.17;10.67;;;10.70;49.40;;;;;;5129962;27;20454;-81
2022/03/27 07:45:57;;;;;;;20.33;11.47;;;10.80;49.30;;;;;;5128252;27;20457;-82
2022/03/27 07:48:26;;;;;;;18.63;11.20;;;10.80;49.30;;;;;;5128440;27;20879;-82
2022/03/27 07:50:54;;;;;;;19.23;11.87;;;10.80;49.60;;;;;;5127899;27;20590;-82
2022/03/27 07:53:22;;;;;;;18.70;10.30;;;10.90;49.80;;;;;;5110506;27;20446;-81
2022/03/27 07:55:51;;;;;;;17.90;10.43;;;11.00;49.90;;;;;;5131127;27;20542;-84
2022/03/27 07:58:18;;;;;;;15.77;11.20;;;10.80;50.30;;;;;;5131454;27;20476;-84
2022/03/27 08:00:45;;;;;;;22.83;11.30;;;10.90;50.40;;;;;;5129145;27;20501;-84
2022/03/27 08:03:12;;;;;;;19.00;11.37;;;11.00;50.10;;;;;;5128679;27;20453;-83
2022/03/27 08:05:39;;;;;;;18.20;11.37;;;11.20;50.10;;;;;;5119085;27;21056;-82
2022/03/27 08:08:07;;;;;;;24.13;10.80;;;11.20;50.50;;;;;;5128818;27;20519;-83
2022/03/27 08:10:34;;;;;;;15.87;10.57;;;11.30;50.10;;;;;;5129226;27;20440;-83
2022/03/27 08:13:03;;;;;;;19.70;11.87;;;11.40;50.50;;;;;;5108808;27;20502;-82
2022/03/27 08:15:30;;;;;;;18.17;11.20;;;11.40;51.10;;;;;;5127803;27;21360;-83
2022/03/27 08:17:57;;;;;;;23.23;12.30;;;11.40;51.60;;;;;;5128940;27;20496;-83
2022/03/27 08:20:25;;;;;;;22.37;11.93;;;11.50;51.40;;;;;;5118803;27;20460;-84
2022/03/27 08:22:52;;;;;;;21.37;11.93;;;11.70;51.30;;;;;;5134729;27;20454;-81
2022/03/27 08:28:00;;;;;;;20.37;11.83;;;12.00;51.30;;;;;;5131601;27;20465;-84
2022/03/27 08:30:29;;;;;;;30.90;12.17;;;12.20;51.20;;;;;;5132136;27;20471;-83
2022/03/27 08:32:56;;;;;;;17.87;11.33;;;12.30;51.20;;;;;;5130020;27;20450;-83
2022/03/27 08:35:23;;;;;;;18.63;10.97;;;12.50;51.60;;;;;;5131845;27;20463;-83
2022/03/27 08:37:49;;;;;;;20.30;12.83;;;12.50;51.90;;;;;;5131186;27;20678;-83
2022/03/27 08:40:18;;;;;;;22.07;11.17;;;12.60;51.90;;;;;;5114346;27;20453;-83
2022/03/27 08:42:45;;;;;;;14.53;10.30;;;12.80;52.10;;;;;;5133501;27;20442;-84
2022/03/27 08:45:13;;;;;;;15.27;10.10;;;12.90;52.50;;;;;;5114814;27;20449;-83
2022/03/27 08:47:41;;;;;;;22.33;11.83;;;13.10;52.40;;;;;;5132428;27;20461;-84
2022/03/27 08:50:16;;;;;;;16.83;10.43;;;13.30;52.40;;;;;;5131062;27;20442;-83
2022/03/27 08:52:53;;;;;;;24.90;11.60;;;13.40;52.40;;;;;;5133391;27;20441;-82
2022/03/27 08:55:29;;;;;;;16.23;10.03;;;13.60;52.30;;;;;;5134036;27;20442;-84
2022/03/27 08:57:57;;;;;;;19.97;11.70;;;13.80;52.20;;;;;;5113579;27;21030;-83
2022/03/27 09:00:28;;;;;;;17.37;10.73;;;14.00;51.80;;;;;;5112115;27;20460;-84
2022/03/27 09:02:58;;;;;;;15.80;10.23;;;14.30;51.80;;;;;;5131370;27;21002;-84
2022/03/27 09:05:26;;;;;;;19.60;11.53;;;14.40;51.80;;;;;;5130347;27;20997;-83
2022/03/27 09:07:55;;;;;;;17.60;11.43;;;14.60;51.60;;;;;;5112007;27;20442;-84
2022/03/27 09:10:23;;;;;;;17.90;10.43;;;14.70;51.50;;;;;;5127683;27;20449;-85
2022/03/27 09:12:51;;;;;;;16.97;10.87;;;14.90;51.30;;;;;;5131190;27;21245;-83
2022/03/27 09:15:19;;;;;;;18.80;11.77;;;15.00;51.20;;;;;;5132142;27;20925;-83
2022/03/27 09:17:59;;;;;;;18.07;11.07;;;15.10;51.10;;;;;;5113051;27;20996;-84
2022/03/27 09:20:38;;;;;;;20.67;11.87;;;15.30;50.90;;;;;;5132831;27;20552;-85
2022/03/27 09:23:18;;;;;;;21.50;12.00;;;15.60;50.30;;;;;;5129575;27;20442;-84
2022/03/27 09:25:50;;;;;;;21.87;12.50;;;15.70;50.00;;;;;;5131236;27;20950;-84
2022/03/27 09:28:32;;;;;;;19.90;11.93;;;15.90;50.00;;;;;;5130822;27;21020;-83
2022/03/27 09:31:02;;;;;;;21.67;12.30;;;16.20;49.80;;;;;;5132178;27;20457;-82
2022/03/27 09:33:36;;;;;;;20.10;12.67;;;16.30;49.60;;;;;;5102776;27;20441;-85
2022/03/27 09:36:08;;;;;;;19.97;11.60;;;16.50;49.50;;;;;;5128800;27;20463;-84
2022/03/27 09:38:36;;;;;;;20.20;12.80;;;16.70;49.10;;;;;;5131825;27;20473;-84
2022/03/27 09:41:04;;;;;;;22.57;11.97;;;16.70;49.10;;;;;;5130989;27;20456;-84
2022/03/27 09:43:32;;;;;;;17.67;10.93;;;16.90;49.10;;;;;;5132908;27;20462;-83
2022/03/27 09:46:01;;;;;;;20.13;12.73;;;17.10;48.80;;;;;;5129533;27;20474;-84
2022/03/27 09:48:29;;;;;;;20.17;12.50;;;17.40;48.60;;;;;;5134513;27;20832;-84
2022/03/27 09:51:00;;;;;;;21.60;12.63;;;17.60;48.30;;;;;;5132189;27;20449;-84
2022/03/27 09:53:30;;;;;;;18.13;12.07;;;18.00;47.90;;;;;;5133266;27;20453;-84
2022/03/27 09:56:15;;;;;;;20.83;11.80;;;18.20;47.40;;;;;;5130608;27;20450;-83
2022/03/27 09:58:44;;;;;;;22.57;11.57;;;18.50;47.00;;;;;;5134365;27;20528;-84
2022/03/27 10:01:13;;;;;;;22.93;12.97;;;18.60;46.50;;;;;;5132341;27;20438;-83
2022/03/27 10:03:58;;;;;;;24.43;13.90;;;18.90;46.40;;;;;;5132402;27;21361;-84
2022/03/27 10:06:33;;;;;;;20.10;12.37;;;19.20;46.40;;;;;;5134332;27;20452;-85
2022/03/27 10:09:01;;;;;;;21.10;12.57;;;19.40;45.30;;;;;;5133793;27;20456;-83
2022/03/27 10:11:29;;;;;;;24.40;14.27;;;19.40;45.10;;;;;;5133645;27;20445;-85
2022/03/27 10:13:57;;;;;;;27.47;16.13;;;19.50;45.60;;;;;;5131668;27;20461;-84
2022/03/27 10:16:26;;;;;;;28.77;14.57;;;19.50;45.40;;;;;;5132519;27;20449;-84
2022/03/27 10:18:56;;;;;;;21.40;13.90;;;19.80;44.60;;;;;;5130353;27;20478;-82
2022/03/27 10:21:26;;;;;;;25.50;13.70;;;20.00;44.20;;;;;;5133144;27;20442;-84
2022/03/27 10:24:04;;;;;;;25.87;13.90;;;20.20;44.00;;;;;;5113518;27;20537;-82
2022/03/27 10:26:31;;;;;;;25.07;13.93;;;20.50;43.50;;;;;;5133275;27;20838;-84
2022/03/27 10:28:59;;;;;;;26.50;16.00;;;20.70;42.80;;;;;;5131830;27;20852;-84
2022/03/27 10:31:27;;;;;;;23.77;13.33;;;20.50;43.10;;;;;;5132866;27;20463;-84
2022/03/27 10:33:58;;;;;;;21.07;12.43;;;20.60;43.30;;;;;;5131213;27;20972;-84
2022/03/27 10:36:34;;;;;;;24.47;13.00;;;20.90;41.40;;;;;;5130602;27;20457;-82
2022/03/27 10:39:09;;;;;;;23.30;12.23;;;21.00;40.90;;;;;;5131034;27;20573;-84
2022/03/27 10:41:42;;;;;;;23.30;12.87;;;21.10;41.80;;;;;;5134372;27;20471;-85
2022/03/27 10:44:18;;;;;;;17.50;11.30;;;21.30;40.40;;;;;;5131385;27;20523;-84
2022/03/27 10:46:47;;;;;;;21.67;12.80;;;21.40;39.90;;;;;;5130693;27;20440;-84
2022/03/27 10:49:16;;;;;;;19.10;10.57;;;21.40;39.70;;;;;;5133679;27;20457;-84
2022/03/27 10:51:45;;;;;;;20.50;9.90;;;21.10;39.60;;;;;;5131318;27;20446;-84
2022/03/27 10:54:18;;;;;;;17.67;10.00;;;21.00;40.50;;;;;;5130612;27;20481;-85
2022/03/27 10:56:46;;;;;;;14.40;9.10;;;21.00;40.20;;;;;;5131965;27;20513;-84
2022/03/27 10:59:16;;;;;;;18.80;11.90;;;20.80;39.90;;;;;;5133279;27;21295;-84
2022/03/27 11:01:45;;;;;;;15.67;9.70;;;21.10;40.40;;;;;;5132907;27;20500;-85
2022/03/27 11:04:14;;;;;;;18.07;10.33;;;21.50;39.40;;;;;;5131665;27;20849;-84
2022/03/27 11:06:43;;;;;;;19.10;10.37;;;21.70;39.10;;;;;;5131017;27;20448;-84
2022/03/27 11:09:13;;;;;;;12.87;8.50;;;21.90;38.30;;;;;;5131787;27;20476;-84
2022/03/27 11:12:02;;;;;;;13.73;8.50;;;22.00;37.40;;;;;;5133250;27;20498;-84
2022/03/27 11:15:02;;;;;;;12.53;8.47;;;22.10;37.40;;;;;;5132154;27;20952;-84
2022/03/27 11:17:33;;;;;;;16.07;8.67;;;22.30;37.20;;;;;;5132639;27;20438;-85
2022/03/27 11:20:01;;;;;;;13.97;8.33;;;22.10;36.70;;;;;;5131838;27;20465;-84
2022/03/27 11:22:49;;;;;;;14.50;7.90;;;22.00;36.80;;;;;;5115547;27;20450;-84
2022/03/27 11:25:45;;;;;;;19.57;8.90;;;22.20;36.60;;;;;;5113758;27;20526;-83
2022/03/27 11:28:15;;;;;;;12.03;8.47;;;22.50;36.50;;;;;;5112193;27;20470;-84
2022/03/27 11:31:16;;;;;;;13.17;8.43;;;22.70;36.50;;;;;;5134494;27;20870;-84
2022/03/27 11:33:44;;;;;;;14.23;8.60;;;22.70;35.80;;;;;;5134695;27;20478;-84
2022/03/27 11:36:25;;;;;;;16.33;10.63;;;22.90;35.80;;;;;;5130748;27;20507;-84
2022/03/27 11:39:02;;;;;;;13.97;7.90;;;23.20;35.60;;;;;;5131028;27;20476;-84
2022/03/27 11:41:34;;;;;;;12.90;8.10;;;23.40;35.00;;;;;;5130253;27;20481;-84
2022/03/27 11:45:06;;;;;;;13.60;7.40;;;23.50;35.00;;;;;;5130989;27;20482;-83
2022/03/27 11:47:16;;;;;;;12.20;7.07;;;23.40;34.70;;;;;;5126660;27;21013;-84
2022/03/27 11:49:43;;;;;;;10.20;6.53;;;23.10;34.10;;;;;;5131309;27;20472;-84
2022/03/27 11:52:12;;;;;;;8.93;5.53;;;23.10;34.70;;;;;;5128011;27;20515;-84
2022/03/27 11:54:40;;;;;;;6.00;4.97;;;23.00;34.20;;;;;;5129275;27;20452;-84
2022/03/27 11:57:07;;;;;;;9.53;6.40;;;22.90;34.70;;;;;;5134493;27;20468;-84
2022/03/27 11:59:46;;;;;;;9.83;6.47;;;23.00;34.40;;;;;;5133921;27;20521;-85
2022/03/27 12:02:13;;;;;;;8.90;6.20;;;23.00;34.20;;;;;;5114776;27;20457;-84
2022/03/27 12:04:56;;;;;;;8.50;5.87;;;23.30;34.10;;;;;;5133888;27;20480;-84
2022/03/27 12:07:25;;;;;;;7.70;5.97;;;23.30;35.00;;;;;;5132962;27;20987;-83
2022/03/27 12:09:59;;;;;;;10.20;5.90;;;23.50;33.90;;;;;;5132609;27;20477;-82
2022/03/27 12:12:28;;;;;;;9.10;6.17;;;23.70;33.80;;;;;;5135952;27;20447;-84
2022/03/27 12:15:00;;;;;;;9.23;5.67;;;23.80;32.60;;;;;;5134239;27;21220;-84
2022/03/27 12:17:31;;;;;;;10.37;6.00;;;23.90;33.50;;;;;;5115952;27;20445;-84
2022/03/27 12:20:00;;;;;;;11.60;7.80;;;24.10;32.80;;;;;;5131309;27;20481;-84
2022/03/27 12:22:37;;;;;;;12.83;7.00;;;24.10;33.10;;;;;;5135008;27;20444;-84
2022/03/27 12:25:10;;;;;;;9.30;6.37;;;24.20;33.10;;;;;;5133052;27;20532;-83
2022/03/27 12:30:33;;;;;;;9.80;6.40;;;24.40;32.50;;;;;;5131329;27;20928;-84
2022/03/27 12:33:01;;;;;;;10.83;6.33;;;24.30;33.00;;;;;;5132632;27;20441;-84
2022/03/27 12:35:30;;;;;;;8.60;6.23;;;24.50;32.30;;;;;;5133158;27;20457;-84
2022/03/27 12:37:57;;;;;;;8.63;5.80;;;24.40;33.10;;;;;;5132057;27;20438;-83
2022/03/27 12:40:25;;;;;;;9.80;6.90;;;24.80;32.60;;;;;;5130866;27;20478;-84
2022/03/27 12:42:53;;;;;;;7.53;6.00;;;24.70;32.80;;;;;;5132154;27;20461;-84
2022/03/27 12:45:32;;;;;;;9.50;6.30;;;25.10;32.30;;;;;;5132196;27;21436;-84
2022/03/27 12:48:03;;;;;;;9.53;6.07;;;25.10;31.70;;;;;;5131005;27;20545;-85
2022/03/27 12:50:35;;;;;;;10.80;6.43;;;25.50;31.90;;;;;;5102177;27;20461;-83
2022/03/27 12:53:04;;;;;;;8.47;6.10;;;25.60;30.40;;;;;;5131244;27;20440;-83
2022/03/27 12:55:43;;;;;;;10.27;6.20;;;25.20;31.60;;;;;;5112471;27;20557;-84